Time;durP1;ratioP1;P1;durP2;ratioP2;P2;SDS_P1;SDS_P2;PMS_P1;PMS_P2;Temp;Humidity;BMP_temperature;BMP_pressure;BME280_temperature;BME280_humidity;BME280_pressure;Samples;Min_cycle;Max_cycle;Signal;HPM_P1;HPM_P2
2022/07/17 00:01:21;;;;;;;11.38;4.28;;;;;;;;;;5072126;28;20044;-57
2022/07/17 00:03:47;;;;;;;12.70;4.72;;;;;;;;;;5072225;28;20032;-57
2022/07/17 00:06:14;;;;;;;13.30;4.18;;;;;;;;;;5071724;28;20032;-58
2022/07/17 00:08:40;;;;;;;11.00;4.25;;;;;;;;;;5072085;28;20020;-58
2022/07/17 00:11:06;;;;;;;14.57;4.55;;;;;;;;;;5071954;28;20029;-58
2022/07/17 00:13:33;;;;;;;9.35;4.68;;;;;;;;;;5072171;28;20032;-57
2022/07/17 00:15:59;;;;;;;13.32;4.70;;;;;;;;;;5072003;28;20031;-58
2022/07/17 00:18:25;;;;;;;11.73;4.50;;;;;;;;;;5071678;28;20529;-58
2022/07/17 00:20:51;;;;;;;9.68;4.60;;;;;;;;;;5071795;28;20036;-58
2022/07/17 00:23:18;;;;;;;10.60;4.63;;;;;;;;;;5072891;28;20032;-58
2022/07/17 00:25:44;;;;;;;11.40;5.50;;;;;;;;;;5075925;28;20039;-58
2022/07/17 00:28:11;;;;;;;11.60;4.30;;;;;;;;;;5075791;28;20406;-58
2022/07/17 00:30:38;;;;;;;8.57;4.47;;;;;;;;;;5075867;28;20554;-58
2022/07/17 00:33:04;;;;;;;11.13;4.45;;;;;;;;;;5075582;28;20021;-58
2022/07/17 00:35:31;;;;;;;9.98;5.03;;;;;;;;;;5075703;28;20035;-58
2022/07/17 00:37:57;;;;;;;13.02;4.75;;;;;;;;;;5075773;28;20033;-58
2022/07/17 00:40:24;;;;;;;10.55;5.05;;;;;;;;;;5075787;28;20505;-58
2022/07/17 00:42:51;;;;;;;10.93;4.68;;;;;;;;;;5075873;28;20054;-58
2022/07/17 00:45:17;;;;;;;15.05;4.57;;;;;;;;;;5075453;28;20035;-58
2022/07/17 00:47:53;;;;;;;9.05;4.40;;;;;;;;;;5075333;28;20554;-58
2022/07/17 00:50:20;;;;;;;8.82;4.55;;;;;;;;;;5075214;28;20028;-57
2022/07/17 00:52:46;;;;;;;9.75;4.45;;;;;;;;;;5075383;28;20035;-58
2022/07/17 00:55:13;;;;;;;9.43;5.07;;;;;;;;;;5057390;28;20035;-58
2022/07/17 00:57:41;;;;;;;8.45;4.43;;;;;;;;;;5075827;28;20020;-57
2022/07/17 01:00:10;;;;;;;7.88;4.10;;;;;;;;;;5075208;28;20029;-58
2022/07/17 01:02:37;;;;;;;7.97;4.63;;;;;;;;;;5075492;28;20020;-58
2022/07/17 01:05:04;;;;;;;9.73;4.55;;;;;;;;;;5074638;28;20123;-58
2022/07/17 01:07:30;;;;;;;15.35;4.70;;;;;;;;;;5075333;28;20027;-58
2022/07/17 01:09:56;;;;;;;12.40;4.70;;;;;;;;;;5075083;28;20050;-58
2022/07/17 01:12:23;;;;;;;8.93;4.18;;;;;;;;;;5075089;28;20070;-58
2022/07/17 01:14:49;;;;;;;12.82;5.18;;;;;;;;;;5075436;28;20478;-58
2022/07/17 01:17:16;;;;;;;10.30;4.28;;;;;;;;;;5074767;28;20070;-58
2022/07/17 01:19:42;;;;;;;13.52;5.70;;;;;;;;;;5074484;28;20032;-58
2022/07/17 01:22:08;;;;;;;7.82;4.03;;;;;;;;;;5074720;28;20029;-59
2022/07/17 01:24:34;;;;;;;10.57;4.55;;;;;;;;;;5075008;28;20047;-59
2022/07/17 01:27:00;;;;;;;7.50;4.53;;;;;;;;;;5074665;28;20085;-57
2022/07/17 01:29:26;;;;;;;10.65;5.03;;;;;;;;;;5074832;28;20032;-57
2022/07/17 01:31:52;;;;;;;9.40;4.47;;;;;;;;;;5074856;28;20029;-57
2022/07/17 01:34:19;;;;;;;9.02;4.47;;;;;;;;;;5074020;28;20064;-58
2022/07/17 01:36:45;;;;;;;10.38;4.68;;;;;;;;;;5074650;28;20035;-57
2022/07/17 01:39:11;;;;;;;8.98;4.78;;;;;;;;;;5074416;28;20100;-57
2022/07/17 01:41:37;;;;;;;10.55;4.55;;;;;;;;;;5074789;28;20070;-57
2022/07/17 01:44:04;;;;;;;11.80;4.95;;;;;;;;;;5074459;28;20177;-57
2022/07/17 01:46:30;;;;;;;13.20;4.68;;;;;;;;;;5074461;28;20024;-57
2022/07/17 01:48:56;;;;;;;8.57;4.50;;;;;;;;;;5072919;28;20074;-57
2022/07/17 01:51:22;;;;;;;12.20;4.88;;;;;;;;;;5074427;28;20025;-58
2022/07/17 01:53:48;;;;;;;8.10;3.80;;;;;;;;;;5074320;28;20028;-57
2022/07/17 01:56:14;;;;;;;9.02;4.68;;;;;;;;;;5074188;28;20021;-57
2022/07/17 01:58:40;;;;;;;9.27;4.47;;;;;;;;;;5074451;28;20030;-58
2022/07/17 02:01:06;;;;;;;11.10;5.10;;;;;;;;;;5074097;28;20028;-57
2022/07/17 02:03:32;;;;;;;14.07;5.65;;;;;;;;;;5073946;28;20102;-58
2022/07/17 02:05:58;;;;;;;11.57;4.78;;;;;;;;;;5072648;28;20523;-58
2022/07/17 02:08:25;;;;;;;8.23;4.55;;;;;;;;;;5073870;28;20067;-57
2022/07/17 02:10:51;;;;;;;9.60;5.45;;;;;;;;;;5072824;28;20105;-58
2022/07/17 02:13:17;;;;;;;9.18;4.45;;;;;;;;;;5073954;28;20174;-58
2022/07/17 02:15:43;;;;;;;9.32;5.25;;;;;;;;;;5074121;28;20501;-58
2022/07/17 02:18:09;;;;;;;11.82;4.93;;;;;;;;;;5073373;28;20081;-58
2022/07/17 02:20:35;;;;;;;12.35;4.88;;;;;;;;;;5073699;28;20025;-57
2022/07/17 02:23:01;;;;;;;11.38;4.30;;;;;;;;;;5073742;28;20102;-58
2022/07/17 02:25:27;;;;;;;9.55;4.75;;;;;;;;;;5073773;28;20097;-57
2022/07/17 02:27:55;;;;;;;13.13;4.85;;;;;;;;;;5073498;28;20048;-58
2022/07/17 02:30:21;;;;;;;14.18;4.78;;;;;;;;;;5073379;28;20115;-57
2022/07/17 02:32:47;;;;;;;12.32;5.38;;;;;;;;;;5072070;28;20417;-58
2022/07/17 02:35:13;;;;;;;11.65;4.20;;;;;;;;;;5073286;28;20020;-58
2022/07/17 02:37:42;;;;;;;12.25;4.78;;;;;;;;;;5073571;28;20024;-58
2022/07/17 02:40:08;;;;;;;7.95;5.30;;;;;;;;;;5073190;28;20024;-58
2022/07/17 02:42:34;;;;;;;8.98;4.75;;;;;;;;;;5073535;28;20444;-58
2022/07/17 02:45:00;;;;;;;9.23;4.53;;;;;;;;;;5072685;28;20414;-57
2022/07/17 02:47:34;;;;;;;6.57;4.63;;;;;;;;;;5072865;28;20474;-58
2022/07/17 02:50:03;;;;;;;11.65;4.93;;;;;;;;;;5073264;28;20123;-58
2022/07/17 02:52:29;;;;;;;11.18;5.63;;;;;;;;;;5071857;28;20064;-58
2022/07/17 02:54:55;;;;;;;11.38;5.40;;;;;;;;;;5073216;28;20478;-57
2022/07/17 02:57:21;;;;;;;10.13;5.30;;;;;;;;;;5072908;28;20032;-58
2022/07/17 02:59:47;;;;;;;9.52;5.30;;;;;;;;;;5072743;28;20039;-58
2022/07/17 03:02:14;;;;;;;12.80;5.88;;;;;;;;;;5073081;28;20502;-58
2022/07/17 03:04:40;;;;;;;13.35;4.93;;;;;;;;;;5073155;28;20032;-58
2022/07/17 03:07:06;;;;;;;11.15;5.13;;;;;;;;;;5072879;28;20482;-57
2022/07/17 03:09:32;;;;;;;14.55;5.60;;;;;;;;;;5072959;28;20398;-58
2022/07/17 03:11:58;;;;;;;9.73;4.78;;;;;;;;;;5072709;28;20012;-57
2022/07/17 03:14:25;;;;;;;8.98;5.20;;;;;;;;;;5072327;28;20017;-58
2022/07/17 03:16:51;;;;;;;18.15;5.68;;;;;;;;;;5073182;28;20390;-58
2022/07/17 03:19:17;;;;;;;14.95;5.30;;;;;;;;;;5072418;28;20591;-58
2022/07/17 03:21:43;;;;;;;10.55;5.20;;;;;;;;;;5072731;28;20127;-58
2022/07/17 03:24:09;;;;;;;9.85;5.72;;;;;;;;;;5072479;28;20082;-58
2022/07/17 03:26:35;;;;;;;11.93;7.10;;;;;;;;;;5072633;28;20078;-57
2022/07/17 03:29:02;;;;;;;13.77;6.45;;;;;;;;;;5072090;28;20090;-58
2022/07/17 03:31:28;;;;;;;12.82;5.78;;;;;;;;;;5072477;28;20031;-57
2022/07/17 03:33:54;;;;;;;9.18;6.13;;;;;;;;;;5072597;28;20020;-58
2022/07/17 03:36:21;;;;;;;11.07;4.97;;;;;;;;;;5072476;28;20490;-57
2022/07/17 03:38:47;;;;;;;9.52;5.15;;;;;;;;;;5072485;28;20071;-58
2022/07/17 03:41:13;;;;;;;11.60;5.18;;;;;;;;;;5072269;28;20029;-58
2022/07/17 03:43:39;;;;;;;13.75;5.28;;;;;;;;;;5072141;28;20077;-57
2022/07/17 03:46:05;;;;;;;14.02;5.60;;;;;;;;;;5072430;28;20029;-58
2022/07/17 03:48:31;;;;;;;13.80;6.13;;;;;;;;;;5072176;28;20029;-58
2022/07/17 03:50:57;;;;;;;8.55;5.35;;;;;;;;;;5072378;28;20166;-57
2022/07/17 03:53:23;;;;;;;13.88;5.15;;;;;;;;;;5072255;28;20071;-57
2022/07/17 03:55:50;;;;;;;11.60;5.25;;;;;;;;;;5071113;28;20095;-57
2022/07/17 03:58:16;;;;;;;10.00;5.35;;;;;;;;;;5071817;28;20126;-57
2022/07/17 04:00:42;;;;;;;15.13;6.18;;;;;;;;;;5072318;28;20065;-57
2022/07/17 04:03:08;;;;;;;11.18;5.90;;;;;;;;;;5071895;28;20032;-57
2022/07/17 04:05:34;;;;;;;14.27;5.93;;;;;;;;;;5072234;28;20028;-57
2022/07/17 04:08:00;;;;;;;12.82;6.20;;;;;;;;;;5072088;28;20115;-57
2022/07/17 04:10:26;;;;;;;9.40;5.50;;;;;;;;;;5071926;28;20521;-57
2022/07/17 04:12:53;;;;;;;11.73;6.45;;;;;;;;;;5071793;28;20064;-57
2022/07/17 04:18:04;;;;;;;12.02;5.40;;;;;;;;;;5071842;28;20089;-57
2022/07/17 04:20:30;;;;;;;13.80;5.63;;;;;;;;;;5071858;28;20075;-58
2022/07/17 04:22:57;;;;;;;9.93;6.07;;;;;;;;;;5072192;28;20115;-57
2022/07/17 04:25:23;;;;;;;14.13;5.97;;;;;;;;;;5071961;28;20412;-58
2022/07/17 04:27:49;;;;;;;11.85;5.07;;;;;;;;;;5071434;28;20052;-58
2022/07/17 04:30:16;;;;;;;13.25;5.65;;;;;;;;;;5071910;28;20021;-57
2022/07/17 04:32:42;;;;;;;11.05;5.32;;;;;;;;;;5071872;28;20032;-58
2022/07/17 04:35:08;;;;;;;8.45;5.75;;;;;;;;;;5071816;28;20035;-57
2022/07/17 04:37:34;;;;;;;11.00;6.03;;;;;;;;;;5072022;28;20036;-58
2022/07/17 04:40:00;;;;;;;15.55;6.28;;;;;;;;;;5070812;28;20028;-58
2022/07/17 04:42:26;;;;;;;13.45;6.03;;;;;;;;;;5071529;28;20055;-58
2022/07/17 04:44:52;;;;;;;15.95;6.18;;;;;;;;;;5053893;28;20029;-57
2022/07/17 04:47:19;;;;;;;17.33;6.47;;;;;;;;;;5070482;28;20032;-58
2022/07/17 04:49:45;;;;;;;14.13;6.85;;;;;;;;;;5071732;28;20025;-58
2022/07/17 04:52:11;;;;;;;14.45;6.22;;;;;;;;;;5070590;28;20375;-57
2022/07/17 04:54:37;;;;;;;12.52;5.95;;;;;;;;;;5071587;28;20028;-58
2022/07/17 04:57:03;;;;;;;11.50;6.45;;;;;;;;;;5071391;28;20084;-58
2022/07/17 04:59:29;;;;;;;10.77;6.20;;;;;;;;;;5071651;28;20036;-57
2022/07/17 05:01:55;;;;;;;11.02;6.60;;;;;;;;;;5071816;28;20108;-58
2022/07/17 05:04:21;;;;;;;14.40;6.13;;;;;;;;;;5071322;28;20048;-58
2022/07/17 05:06:47;;;;;;;11.15;5.78;;;;;;;;;;5071791;28;20474;-58
2022/07/17 05:09:13;;;;;;;16.23;6.00;;;;;;;;;;5071999;28;20020;-58
2022/07/17 05:11:40;;;;;;;15.27;6.22;;;;;;;;;;5074932;28;20557;-57
2022/07/17 05:14:06;;;;;;;10.77;6.68;;;;;;;;;;5075340;28;20497;-58
2022/07/17 05:16:32;;;;;;;11.90;6.30;;;;;;;;;;5074977;28;20032;-58
2022/07/17 05:18:58;;;;;;;14.32;6.28;;;;;;;;;;5075054;28;20035;-58
2022/07/17 05:21:24;;;;;;;13.93;5.97;;;;;;;;;;5074929;28;20032;-58
2022/07/17 05:23:50;;;;;;;9.77;5.85;;;;;;;;;;5074867;28;20097;-58
2022/07/17 05:26:16;;;;;;;12.90;6.35;;;;;;;;;;5073392;28;20036;-58
2022/07/17 05:28:42;;;;;;;9.40;5.43;;;;;;;;;;5074570;28;20084;-58
2022/07/17 05:31:09;;;;;;;15.25;5.43;;;;;;;;;;5074761;28;20149;-58
2022/07/17 05:33:35;;;;;;;15.13;6.03;;;;;;;;;;5074778;28;20463;-58
2022/07/17 05:36:01;;;;;;;10.68;5.80;;;;;;;;;;5074726;28;20478;-58
2022/07/17 05:38:27;;;;;;;12.82;6.15;;;;;;;;;;5074463;28;20025;-58
2022/07/17 05:40:53;;;;;;;17.40;5.63;;;;;;;;;;5074482;28;20029;-58
2022/07/17 05:43:20;;;;;;;11.25;5.75;;;;;;;;;;5074470;28;20032;-58
2022/07/17 05:45:46;;;;;;;11.13;5.32;;;;;;;;;;5074492;28;20393;-57
2022/07/17 05:48:12;;;;;;;12.75;5.53;;;;;;;;;;5074616;28;20033;-57
2022/07/17 05:50:38;;;;;;;10.05;6.05;;;;;;;;;;5074713;28;20040;-57
2022/07/17 05:53:04;;;;;;;16.15;6.30;;;;;;;;;;5074377;28;20027;-57
2022/07/17 05:55:30;;;;;;;12.55;5.45;;;;;;;;;;5073881;28;20021;-57
2022/07/17 05:57:56;;;;;;;11.10;5.25;;;;;;;;;;5074363;28;20162;-57
2022/07/17 06:00:22;;;;;;;12.95;5.22;;;;;;;;;;5072876;28;20020;-57
2022/07/17 06:02:49;;;;;;;11.85;6.10;;;;;;;;;;5074268;28;20112;-57
2022/07/17 06:05:15;;;;;;;18.75;6.75;;;;;;;;;;5074108;28;20036;-57
2022/07/17 06:07:41;;;;;;;11.57;5.50;;;;;;;;;;5074058;28;20159;-57
2022/07/17 06:10:07;;;;;;;9.88;4.72;;;;;;;;;;5073731;28;20394;-58
2022/07/17 06:12:33;;;;;;;11.68;5.22;;;;;;;;;;5073831;28;20063;-58
2022/07/17 06:14:59;;;;;;;13.32;5.35;;;;;;;;;;5074031;28;20101;-57
2022/07/17 06:17:26;;;;;;;13.95;6.13;;;;;;;;;;5073710;28;20371;-57
2022/07/17 06:19:52;;;;;;;11.50;4.60;;;;;;;;;;5072781;28;20032;-57
2022/07/17 06:22:19;;;;;;;12.73;5.10;;;;;;;;;;5073782;28;20052;-57
2022/07/17 06:24:45;;;;;;;9.82;5.15;;;;;;;;;;5073534;28;20115;-57
2022/07/17 06:27:12;;;;;;;9.23;4.70;;;;;;;;;;5073518;28;20403;-57
2022/07/17 06:29:38;;;;;;;12.77;5.45;;;;;;;;;;5073360;28;20038;-57
2022/07/17 06:32:04;;;;;;;8.00;4.80;;;;;;;;;;5073663;28;20025;-57
2022/07/17 06:34:30;;;;;;;9.73;4.38;;;;;;;;;;5073446;28;20032;-57
2022/07/17 06:36:56;;;;;;;11.40;4.43;;;;;;;;;;5073620;28;20070;-57
2022/07/17 06:39:22;;;;;;;10.63;5.25;;;;;;;;;;5072982;28;20042;-57
2022/07/17 06:41:49;;;;;;;12.48;4.70;;;;;;;;;;5073434;28;20482;-57
2022/07/17 06:44:15;;;;;;;12.35;4.60;;;;;;;;;;5073531;28;20028;-57
2022/07/17 06:46:41;;;;;;;11.13;4.78;;;;;;;;;;5073129;28;20033;-57
2022/07/17 06:49:07;;;;;;;13.95;5.40;;;;;;;;;;5073273;28;20024;-57
2022/07/17 06:51:33;;;;;;;9.57;4.97;;;;;;;;;;5073082;28;20402;-58
2022/07/17 06:53:59;;;;;;;9.25;4.55;;;;;;;;;;5071988;28;20020;-57
2022/07/17 06:56:25;;;;;;;10.95;3.88;;;;;;;;;;5072912;28;20036;-57
2022/07/17 06:58:51;;;;;;;10.45;4.38;;;;;;;;;;5072042;28;20023;-58
2022/07/17 07:01:17;;;;;;;8.70;4.55;;;;;;;;;;5072816;28;20040;-57
2022/07/17 07:03:44;;;;;;;10.95;4.15;;;;;;;;;;5073014;28;20074;-57
2022/07/17 07:06:10;;;;;;;8.23;4.00;;;;;;;;;;5072698;28;20020;-57
2022/07/17 07:08:36;;;;;;;10.80;4.00;;;;;;;;;;5072449;28;20040;-57
2022/07/17 07:11:02;;;;;;;11.07;3.83;;;;;;;;;;5072862;28;20058;-57
2022/07/17 07:13:29;;;;;;;11.38;4.03;;;;;;;;;;5072825;28;20044;-58
2022/07/17 07:15:55;;;;;;;10.85;3.90;;;;;;;;;;5072699;28;20034;-58
2022/07/17 07:18:22;;;;;;;10.45;3.95;;;;;;;;;;5072635;28;20040;-57
2022/07/17 07:20:48;;;;;;;7.97;3.67;;;;;;;;;;5072226;28;20494;-58
2022/07/17 07:23:14;;;;;;;7.15;3.38;;;;;;;;;;5072605;28;20456;-57
2022/07/17 07:25:40;;;;;;;8.73;3.10;;;;;;;;;;5072664;28;20055;-57
2022/07/17 07:28:06;;;;;;;6.97;3.47;;;;;;;;;;5072446;28;20131;-58
2022/07/17 07:30:33;;;;;;;9.98;3.35;;;;;;;;;;5072486;28;20444;-58
2022/07/17 07:32:59;;;;;;;12.48;2.83;;;;;;;;;;5072210;28;20398;-57
2022/07/17 07:35:25;;;;;;;7.65;2.72;;;;;;;;;;5072284;28;20024;-57
2022/07/17 07:37:51;;;;;;;5.38;2.72;;;;;;;;;;5072473;28;20028;-58
2022/07/17 07:40:17;;;;;;;6.75;2.85;;;;;;;;;;5072704;28;20016;-58
2022/07/17 07:42:43;;;;;;;2.92;2.20;;;;;;;;;;5072215;28;20032;-58
2022/07/17 07:45:09;;;;;;;7.65;3.22;;;;;;;;;;5072468;28;20020;-58
2022/07/17 07:47:42;;;;;;;9.95;2.90;;;;;;;;;;5072392;28;20032;-57
2022/07/17 07:50:09;;;;;;;7.97;2.90;;;;;;;;;;5072116;28;20029;-58
2022/07/17 07:52:35;;;;;;;4.78;2.05;;;;;;;;;;5071127;28;20028;-57
2022/07/17 07:55:03;;;;;;;8.43;2.85;;;;;;;;;;5072347;28;20067;-58
2022/07/17 07:57:29;;;;;;;4.95;2.55;;;;;;;;;;5070974;28;20029;-58
2022/07/17 07:59:55;;;;;;;6.68;2.50;;;;;;;;;;5072160;28;20036;-58
2022/07/17 08:02:21;;;;;;;9.73;2.50;;;;;;;;;;5072289;28;20052;-58
2022/07/17 08:04:47;;;;;;;6.75;2.25;;;;;;;;;;5071886;28;20059;-58
2022/07/17 08:07:14;;;;;;;4.30;2.40;;;;;;;;;;5072172;28;20035;-58
2022/07/17 08:09:40;;;;;;;9.45;2.58;;;;;;;;;;5071861;28;20039;-58
2022/07/17 08:12:06;;;;;;;8.30;2.67;;;;;;;;;;5072213;28;20020;-57
2022/07/17 08:14:32;;;;;;;4.47;2.30;;;;;;;;;;5072069;28;20020;-57
2022/07/17 08:16:58;;;;;;;7.13;2.72;;;;;;;;;;5072183;28;20055;-58
2022/07/17 08:19:24;;;;;;;4.47;2.45;;;;;;;;;;5071703;28;20058;-58
2022/07/17 08:21:50;;;;;;;10.05;2.35;;;;;;;;;;5072107;28;20036;-58
2022/07/17 08:24:17;;;;;;;5.85;2.60;;;;;;;;;;5072021;28;20025;-57
2022/07/17 08:26:43;;;;;;;10.40;2.67;;;;;;;;;;5070662;28;20394;-58
2022/07/17 08:29:09;;;;;;;6.75;2.70;;;;;;;;;;5071610;28;20569;-58
2022/07/17 08:31:36;;;;;;;9.50;2.15;;;;;;;;;;5071967;28;20401;-58
2022/07/17 08:34:02;;;;;;;5.00;2.17;;;;;;;;;;5071804;28;20111;-65
2022/07/17 08:36:28;;;;;;;5.72;2.35;;;;;;;;;;5072422;28;20024;-66
2022/07/17 08:38:54;;;;;;;6.00;2.45;;;;;;;;;;5072275;28;20063;-66
2022/07/17 08:41:22;;;;;;;5.15;2.78;;;;;;;;;;5071630;28;20028;-64
2022/07/17 08:43:50;;;;;;;9.30;2.90;;;;;;;;;;5063903;28;20052;-65
2022/07/17 08:46:17;;;;;;;5.95;2.50;;;;;;;;;;5075913;28;20479;-65
2022/07/17 08:48:46;;;;;;;4.53;2.13;;;;;;;;;;5075610;28;20450;-65
2022/07/17 08:51:12;;;;;;;4.38;2.33;;;;;;;;;;5076051;28;20025;-65
2022/07/17 08:53:39;;;;;;;6.88;2.13;;;;;;;;;;5075168;28;20020;-65
2022/07/17 08:56:05;;;;;;;10.93;2.45;;;;;;;;;;5076007;28;20032;-65
2022/07/17 08:58:31;;;;;;;7.03;2.50;;;;;;;;;;5075769;28;20036;-65
2022/07/17 09:00:58;;;;;;;3.53;2.40;;;;;;;;;;5076068;28;20025;-65
2022/07/17 09:03:24;;;;;;;4.40;2.33;;;;;;;;;;5075078;28;20370;-65
2022/07/17 09:05:50;;;;;;;3.88;2.50;;;;;;;;;;5075040;28;20409;-65
2022/07/17 09:08:19;;;;;;;5.70;2.55;;;;;;;;;;5074439;28;20402;-65
2022/07/17 09:10:46;;;;;;;3.05;2.00;;;;;;;;;;5075530;28;20386;-65
2022/07/17 09:13:25;;;;;;;6.47;3.10;;;;;;;;;;5075651;28;20075;-65
2022/07/17 09:15:53;;;;;;;3.95;2.05;;;;;;;;;;5074356;28;20028;-65
2022/07/17 09:18:19;;;;;;;7.15;2.25;;;;;;;;;;5077378;28;20493;-65
2022/07/17 09:20:50;;;;;;;8.07;2.70;;;;;;;;;;5070799;28;20020;-65
2022/07/17 09:23:17;;;;;;;4.30;2.45;;;;;;;;;;5072218;28;20031;-64
2022/07/17 09:25:45;;;;;;;4.72;2.40;;;;;;;;;;5074952;28;20036;-63
2022/07/17 09:28:13;;;;;;;3.65;2.10;;;;;;;;;;5074670;28;20095;-64
2022/07/17 09:30:44;;;;;;;8.68;3.20;;;;;;;;;;5073618;28;20028;-64
2022/07/17 09:33:14;;;;;;;4.90;2.08;;;;;;;;;;5072806;28;20028;-64
2022/07/17 09:35:46;;;;;;;7.95;2.92;;;;;;;;;;5074307;28;20024;-64
2022/07/17 09:38:24;;;;;;;6.40;2.70;;;;;;;;;;5073283;28;20049;-64
2022/07/17 09:41:09;;;;;;;7.03;2.38;;;;;;;;;;5073067;28;20385;-64
2022/07/17 09:43:39;;;;;;;6.57;2.50;;;;;;;;;;5063238;28;20030;-63
2022/07/17 09:46:05;;;;;;;7.70;3.65;;;;;;;;;;5074362;28;20048;-63
2022/07/17 09:48:32;;;;;;;3.33;2.40;;;;;;;;;;5074193;28;20060;-63
2022/07/17 09:50:59;;;;;;;5.13;2.17;;;;;;;;;;5073456;28;20029;-63
2022/07/17 09:53:25;;;;;;;7.78;2.78;;;;;;;;;;5074223;28;20024;-63
2022/07/17 09:55:56;;;;;;;5.15;2.10;;;;;;;;;;5074412;28;20029;-63
2022/07/17 09:58:23;;;;;;;8.55;2.88;;;;;;;;;;5074453;28;20108;-63
2022/07/17 10:00:50;;;;;;;9.65;2.40;;;;;;;;;;5073640;28;20351;-63
2022/07/17 10:03:20;;;;;;;5.57;2.10;;;;;;;;;;5073895;28;20044;-63
2022/07/17 10:05:46;;;;;;;5.43;2.60;;;;;;;;;;5073912;28;20043;-64
2022/07/17 10:08:13;;;;;;;4.80;2.13;;;;;;;;;;5074129;28;20111;-64
2022/07/17 10:10:39;;;;;;;4.68;2.17;;;;;;;;;;5073571;28;20539;-64
2022/07/17 10:13:05;;;;;;;6.90;2.40;;;;;;;;;;5073722;28;20028;-65
2022/07/17 10:15:32;;;;;;;3.25;2.15;;;;;;;;;;5072806;28;20154;-65
2022/07/17 10:18:04;;;;;;;6.05;2.33;;;;;;;;;;5073804;28;20374;-64
2022/07/17 10:20:31;;;;;;;6.50;2.22;;;;;;;;;;5072811;28;20486;-64
2022/07/17 10:22:57;;;;;;;6.30;2.13;;;;;;;;;;5073443;28;20032;-65
2022/07/17 10:25:23;;;;;;;9.52;2.15;;;;;;;;;;5073489;28;20486;-64
2022/07/17 10:27:54;;;;;;;6.25;2.28;;;;;;;;;;5073233;28;20098;-64
2022/07/17 10:30:23;;;;;;;10.77;2.50;;;;;;;;;;5073025;28;20075;-65
2022/07/17 10:32:53;;;;;;;5.20;2.47;;;;;;;;;;5072491;28;20032;-64
2022/07/17 10:35:20;;;;;;;7.25;2.33;;;;;;;;;;5073131;28;20115;-65
2022/07/17 10:37:46;;;;;;;5.68;2.20;;;;;;;;;;5071893;28;20027;-64
2022/07/17 10:40:22;;;;;;;11.00;2.53;;;;;;;;;;5073611;28;20028;-64
2022/07/17 10:42:56;;;;;;;4.43;2.42;;;;;;;;;;5071703;28;20036;-65
2022/07/17 10:45:33;;;;;;;7.90;2.60;;;;;;;;;;5071729;28;20117;-65
2022/07/17 10:48:02;;;;;;;4.72;2.00;;;;;;;;;;5066776;28;20151;-64
2022/07/17 10:50:30;;;;;;;5.22;2.10;;;;;;;;;;5071824;28;20021;-64
2022/07/17 10:52:57;;;;;;;4.75;2.40;;;;;;;;;;5070509;28;20078;-64
2022/07/17 10:55:23;;;;;;;5.65;2.10;;;;;;;;;;5070550;28;20670;-64
2022/07/17 10:57:50;;;;;;;8.65;2.50;;;;;;;;;;5071597;28;20106;-64
2022/07/17 11:00:17;;;;;;;6.55;2.22;;;;;;;;;;5071844;28;20020;-65
2022/07/17 11:02:43;;;;;;;5.22;2.33;;;;;;;;;;5071250;28;20032;-64
2022/07/17 11:05:11;;;;;;;4.15;2.00;;;;;;;;;;5071097;28;20028;-65
2022/07/17 11:07:49;;;;;;;5.03;2.20;;;;;;;;;;5070379;28;20051;-65
2022/07/17 11:10:15;;;;;;;8.98;2.33;;;;;;;;;;5071373;28;20036;-64
2022/07/17 11:12:41;;;;;;;5.22;1.92;;;;;;;;;;5071368;28;20468;-65
2022/07/17 11:15:07;;;;;;;4.30;2.47;;;;;;;;;;5071600;28;20463;-64
2022/07/17 11:17:34;;;;;;;5.40;2.30;;;;;;;;;;5071598;28;20064;-65
2022/07/17 11:20:00;;;;;;;4.65;2.17;;;;;;;;;;5071021;28;20032;-65
2022/07/17 11:22:29;;;;;;;4.22;2.42;;;;;;;;;;5070918;28;20028;-64
2022/07/17 11:24:55;;;;;;;4.50;3.40;;;;;;;;;;5070864;28;20072;-65
2022/07/17 11:27:26;;;;;;;5.05;2.38;;;;;;;;;;5070356;28;20518;-65
2022/07/17 11:29:53;;;;;;;5.93;2.15;;;;;;;;;;5070603;28;20035;-65
2022/07/17 11:32:19;;;;;;;6.60;2.13;;;;;;;;;;5071273;28;20429;-65
2022/07/17 11:34:46;;;;;;;5.63;2.25;;;;;;;;;;5071514;28;20028;-65
2022/07/17 11:37:12;;;;;;;4.53;2.28;;;;;;;;;;5071566;28;20086;-65
2022/07/17 11:39:45;;;;;;;5.97;2.42;;;;;;;;;;5071183;28;20549;-65
2022/07/17 11:42:21;;;;;;;4.70;3.03;;;;;;;;;;5070732;28;20032;-65
2022/07/17 11:44:49;;;;;;;4.22;1.77;;;;;;;;;;5071176;28;20089;-65
2022/07/17 11:47:20;;;;;;;5.82;2.45;;;;;;;;;;5071440;28;20097;-65
2022/07/17 11:49:46;;;;;;;6.63;2.22;;;;;;;;;;5071062;28;20056;-64
2022/07/17 11:52:14;;;;;;;3.67;2.50;;;;;;;;;;5071315;28;20025;-64
2022/07/17 11:54:47;;;;;;;4.38;2.28;;;;;;;;;;5069618;28;20016;-65
2022/07/17 11:57:13;;;;;;;5.03;2.00;;;;;;;;;;5069218;28;20017;-65
2022/07/17 11:59:39;;;;;;;3.67;2.15;;;;;;;;;;5069965;28;20116;-65
2022/07/17 12:02:13;;;;;;;8.27;2.05;;;;;;;;;;5070798;28;20029;-64
2022/07/17 12:04:52;;;;;;;6.32;2.60;;;;;;;;;;5068018;28;20047;-64
2022/07/17 12:07:19;;;;;;;3.85;2.88;;;;;;;;;;5071055;28;20043;-65
2022/07/17 12:09:45;;;;;;;9.35;2.28;;;;;;;;;;5070836;28;20032;-64
2022/07/17 12:12:21;;;;;;;6.38;2.67;;;;;;;;;;5070965;28;20025;-64
2022/07/17 12:14:51;;;;;;;6.07;3.90;;;;;;;;;;5070733;28;20028;-64
2022/07/17 12:17:17;;;;;;;5.78;3.17;;;;;;;;;;5071330;28;20470;-64
2022/07/17 12:19:43;;;;;;;7.22;2.97;;;;;;;;;;5074565;28;20070;-64
2022/07/17 12:22:09;;;;;;;3.25;2.22;;;;;;;;;;5075058;28;20040;-65
2022/07/17 12:24:40;;;;;;;7.18;2.65;;;;;;;;;;5074286;28;20037;-65
2022/07/17 12:27:07;;;;;;;4.32;2.20;;;;;;;;;;5073189;28;20032;-64
2022/07/17 12:29:34;;;;;;;3.22;2.08;;;;;;;;;;5073961;28;20669;-64
2022/07/17 12:32:04;;;;;;;3.58;2.35;;;;;;;;;;5074538;28;20032;-65
2022/07/17 12:34:30;;;;;;;3.58;2.70;;;;;;;;;;5071573;28;20402;-65
2022/07/17 12:36:57;;;;;;;3.97;2.25;;;;;;;;;;5074707;28;20028;-65
2022/07/17 12:39:23;;;;;;;10.05;2.17;;;;;;;;;;5074642;28;20041;-64
2022/07/17 12:41:49;;;;;;;3.08;2.00;;;;;;;;;;5074339;28;20466;-65
2022/07/17 12:44:15;;;;;;;5.20;2.13;;;;;;;;;;5074626;28;20463;-65
2022/07/17 12:46:41;;;;;;;4.00;2.13;;;;;;;;;;5074961;28;20028;-64
2022/07/17 12:49:07;;;;;;;6.03;2.28;;;;;;;;;;5074277;28;20425;-64
2022/07/17 12:51:34;;;;;;;3.80;1.85;;;;;;;;;;5075107;28;20494;-65
2022/07/17 12:54:00;;;;;;;4.55;2.22;;;;;;;;;;5073826;28;20077;-65
2022/07/17 12:56:27;;;;;;;5.40;2.20;;;;;;;;;;5073971;28;20032;-64
2022/07/17 12:58:53;;;;;;;6.45;1.85;;;;;;;;;;5074570;28;20028;-64
2022/07/17 13:01:19;;;;;;;4.07;1.80;;;;;;;;;;5074289;28;20029;-65
2022/07/17 13:03:46;;;;;;;4.78;2.03;;;;;;;;;;5074070;28;20035;-65
2022/07/17 13:06:12;;;;;;;5.95;1.85;;;;;;;;;;5074166;28;20032;-65
2022/07/17 13:08:38;;;;;;;3.15;2.42;;;;;;;;;;5072277;28;20375;-65
2022/07/17 13:11:04;;;;;;;7.45;2.30;;;;;;;;;;5074252;28;20032;-65
2022/07/17 13:13:31;;;;;;;4.78;2.35;;;;;;;;;;5072890;28;20028;-65
2022/07/17 13:15:57;;;;;;;4.32;1.90;;;;;;;;;;5073929;28;20029;-65
2022/07/17 13:18:24;;;;;;;7.28;2.30;;;;;;;;;;5073405;28;20157;-64
2022/07/17 13:20:50;;;;;;;3.90;2.08;;;;;;;;;;5074078;28;20024;-64
2022/07/17 13:23:16;;;;;;;3.80;1.92;;;;;;;;;;5072782;28;20032;-65
2022/07/17 13:25:43;;;;;;;4.57;1.90;;;;;;;;;;5074229;28;20091;-64
2022/07/17 13:28:09;;;;;;;6.60;2.78;;;;;;;;;;5071175;28;20036;-65
2022/07/17 13:30:36;;;;;;;8.15;1.95;;;;;;;;;;5072697;28;20020;-65
2022/07/17 13:33:02;;;;;;;2.83;1.75;;;;;;;;;;5073270;28;20104;-64
2022/07/17 13:35:29;;;;;;;4.47;2.28;;;;;;;;;;5072571;28;20116;-65
2022/07/17 13:37:56;;;;;;;3.08;1.73;;;;;;;;;;5073344;28;20043;-65
2022/07/17 13:40:24;;;;;;;7.45;2.20;;;;;;;;;;5073218;28;20032;-65
2022/07/17 13:42:51;;;;;;;3.80;2.00;;;;;;;;;;5073368;28;20040;-65
2022/07/17 13:45:17;;;;;;;4.00;2.00;;;;;;;;;;5073651;28;20028;-65
2022/07/17 13:47:43;;;;;;;5.05;2.08;;;;;;;;;;5073757;28;20091;-65
2022/07/17 13:50:09;;;;;;;6.10;1.70;;;;;;;;;;5073707;28;20035;-65
2022/07/17 13:52:37;;;;;;;4.07;1.65;;;;;;;;;;5073169;28;20446;-65
2022/07/17 13:55:06;;;;;;;8.60;1.90;;;;;;;;;;5073999;28;20048;-65
2022/07/17 13:57:32;;;;;;;2.17;1.45;;;;;;;;;;5067586;28;20033;-65
2022/07/17 14:00:00;;;;;;;3.28;2.15;;;;;;;;;;5073462;28;20028;-65
2022/07/17 14:02:27;;;;;;;2.70;1.88;;;;;;;;;;5073394;28;20062;-65
2022/07/17 14:04:53;;;;;;;4.32;1.80;;;;;;;;;;5073504;28;20020;-65
2022/07/17 14:07:19;;;;;;;3.00;1.77;;;;;;;;;;5072937;28;20472;-65
2022/07/17 14:09:45;;;;;;;4.25;1.73;;;;;;;;;;5073340;28;20055;-65
2022/07/17 14:12:11;;;;;;;4.75;2.20;;;;;;;;;;5072862;28;20535;-65
2022/07/17 14:14:37;;;;;;;4.07;1.70;;;;;;;;;;5072243;28;20432;-65
2022/07/17 14:17:03;;;;;;;5.65;1.73;;;;;;;;;;5072886;28;20019;-65
2022/07/17 14:19:29;;;;;;;4.50;1.80;;;;;;;;;;5072584;28;20027;-65
2022/07/17 14:21:56;;;;;;;4.78;2.08;;;;;;;;;;5072757;28;20024;-65
2022/07/17 14:24:22;;;;;;;3.95;2.15;;;;;;;;;;5072492;28;20507;-65
2022/07/17 14:26:48;;;;;;;5.72;2.10;;;;;;;;;;5072543;28;20479;-65
2022/07/17 14:29:14;;;;;;;5.13;1.80;;;;;;;;;;5072395;28;20032;-65
2022/07/17 14:31:40;;;;;;;7.60;2.10;;;;;;;;;;5072981;28;20390;-64
2022/07/17 14:34:06;;;;;;;5.15;1.85;;;;;;;;;;5072913;28;20029;-65
2022/07/17 14:36:33;;;;;;;4.63;2.38;;;;;;;;;;5072365;28;20394;-65
2022/07/17 14:38:59;;;;;;;9.45;2.35;;;;;;;;;;5073002;28;20029;-64